createdAt,value
2018-06-23T00:02:16.825Z,60.95
2018-06-23T00:04:46.807Z,60.49
2018-06-23T00:07:16.985Z,60.32
2018-06-23T00:09:47.312Z,60.26
2018-06-23T00:12:17.514Z,60.67
2018-06-23T00:14:48.326Z,60.61
2018-06-23T00:17:18.326Z,60.65
2018-06-23T00:19:48.534Z,60.50
2018-06-23T00:22:18.646Z,59.83
2018-06-23T00:24:48.903Z,60.38
2018-06-23T00:27:18.909Z,59.78
2018-06-23T00:29:48.966Z,60.06
2018-06-23T00:32:18.949Z,60.38
2018-06-23T00:34:49.328Z,60.73
2018-06-23T00:37:19.567Z,60.36
2018-06-23T00:39:49.759Z,60.05
2018-06-23T00:42:21.369Z,60.04
2018-06-23T00:44:51.835Z,60.17
2018-06-23T00:47:22.030Z,60.23
2018-06-23T00:49:52.222Z,60.65
2018-06-23T00:52:22.286Z,59.90
2018-06-23T00:54:52.834Z,59.92
2018-06-23T00:57:23.384Z,60.02
2018-06-23T00:59:53.559Z,60.56
2018-06-23T01:02:24.353Z,60.72
2018-06-23T01:04:54.643Z,60.54
2018-06-23T01:07:25.252Z,59.87
2018-06-23T01:09:55.440Z,60.58
2018-06-23T01:12:25.630Z,60.42
2018-06-23T01:14:55.841Z,60.23
2018-06-23T01:17:25.906Z,60.97
2018-06-23T01:19:55.860Z,60.32
2018-06-23T01:22:25.991Z,60.57
2018-06-23T01:24:55.880Z,61.26
2018-06-23T01:27:27.013Z,60.70
2018-06-23T01:29:57.283Z,61.59
2018-06-23T01:32:27.362Z,60.79
2018-06-23T01:34:57.508Z,60.98
2018-06-23T01:37:27.647Z,61.69
2018-06-23T01:39:58.084Z,61.88
2018-06-23T01:42:28.451Z,61.79
2018-06-23T01:44:58.587Z,61.68
2018-06-23T01:47:28.789Z,61.37
2018-06-23T01:49:58.836Z,61.21
2018-06-23T01:52:29.004Z,61.38
2018-06-23T01:54:59.327Z,62.07
2018-06-23T01:57:29.246Z,62.36
2018-06-23T01:59:59.355Z,62.33
2018-06-23T02:02:29.717Z,61.96
2018-06-23T02:05:00.092Z,62.50
2018-06-23T02:07:30.399Z,62.54
2018-06-23T02:10:00.565Z,62.00
2018-06-23T02:12:30.727Z,62.87
2018-06-23T02:15:05.983Z,62.37
2018-06-23T02:17:41.393Z,63.03
2018-06-23T02:20:16.582Z,62.54
2018-06-23T02:22:51.723Z,62.38
2018-06-23T02:25:26.838Z,62.24
2018-06-23T02:28:01.995Z,62.60
2018-06-23T02:30:36.146Z,62.02
2018-06-23T02:33:11.267Z,62.32
2018-06-23T02:35:41.993Z,61.85
2018-06-23T02:38:12.390Z,61.40
2018-06-23T02:40:42.502Z,61.57
2018-06-23T02:43:12.550Z,61.76
2018-06-23T02:45:42.400Z,61.47
2018-06-23T02:48:12.361Z,61.34
2018-06-23T02:50:43.911Z,61.58
2018-06-23T02:53:14.341Z,61.69
2018-06-23T02:55:44.608Z,60.66
2018-06-23T02:58:14.879Z,60.72
2018-06-23T03:00:45.616Z,61.17
2018-06-23T03:03:15.735Z,61.30
2018-06-23T03:05:45.951Z,60.89
2018-06-23T03:08:16.141Z,60.90
2018-06-23T03:10:47.164Z,60.28
2018-06-23T03:13:17.322Z,60.26
2018-06-23T03:15:47.340Z,60.71
2018-06-23T03:18:17.407Z,60.54
2018-06-23T03:20:47.479Z,60.06
2018-06-23T03:23:17.686Z,60.82
2018-06-23T03:25:47.903Z,60.47
2018-06-23T03:28:17.846Z,60.48
2018-06-23T03:30:48.131Z,60.10
2018-06-23T03:33:18.234Z,60.25
2018-06-23T03:35:48.470Z,60.12
2018-06-23T03:38:18.657Z,60.43
2018-06-23T03:40:48.524Z,60.00
2018-06-23T03:43:18.932Z,60.91
2018-06-23T03:45:50.750Z,60.56
2018-06-23T03:48:20.756Z,60.73
2018-06-23T03:50:50.978Z,60.23
2018-06-23T03:53:21.104Z,60.38
2018-06-23T03:55:51.316Z,60.68
2018-06-23T03:58:21.469Z,61.35
2018-06-23T04:00:56.927Z,61.43
2018-06-23T04:03:28.292Z,61.27
2018-06-23T04:05:58.859Z,61.41
2018-06-23T04:08:28.806Z,62.07
2018-06-23T04:10:59.395Z,61.83
2018-06-23T04:13:29.529Z,62.32
2018-06-23T04:16:00.514Z,62.59
2018-06-23T04:18:30.677Z,62.63
2018-06-23T04:21:00.919Z,61.91
2018-06-23T04:23:31.471Z,61.80
2018-06-23T04:26:01.563Z,62.58
2018-06-23T04:28:31.691Z,62.82
2018-06-23T04:31:01.899Z,62.31
2018-06-23T04:33:32.001Z,62.26
2018-06-23T04:36:01.900Z,62.17
2018-06-23T04:38:32.439Z,62.99
2018-06-23T04:41:02.856Z,62.93
2018-06-23T04:43:36.024Z,62.55
2018-06-23T04:46:07.069Z,62.81
2018-06-23T04:48:37.161Z,62.39
2018-06-23T04:51:07.344Z,62.62
2018-06-23T04:53:46.920Z,62.94
2018-06-23T04:56:17.847Z,62.91
2018-06-23T04:58:47.807Z,62.04
2018-06-23T05:01:17.981Z,62.87
2018-06-23T05:03:48.314Z,62.36
2018-06-23T05:06:20.212Z,62.19
2018-06-23T05:08:50.625Z,61.94
2018-06-23T05:11:20.874Z,62.32
2018-06-23T05:13:51.500Z,61.78
2018-06-23T05:16:21.712Z,61.39
2018-06-23T05:18:52.121Z,62.03
2018-06-23T05:21:22.379Z,61.54
2018-06-23T05:23:54.383Z,61.91
2018-06-23T05:26:24.746Z,62.28
2018-06-23T05:28:54.951Z,62.03
2018-06-23T05:31:25.366Z,61.74
2018-06-23T05:33:55.867Z,62.06
2018-06-23T05:36:25.907Z,62.08
2018-06-23T05:38:56.079Z,60.98
2018-06-23T05:41:26.256Z,61.50
2018-06-23T05:43:56.426Z,61.47
2018-06-23T05:46:26.398Z,60.93
2018-06-23T05:48:56.662Z,60.38
2018-06-23T05:51:26.974Z,60.12
2018-06-23T05:53:57.222Z,60.53
2018-06-23T05:56:27.206Z,59.75
2018-06-23T05:58:57.694Z,60.79
2018-06-23T06:01:27.851Z,60.71
2018-06-23T06:03:58.042Z,60.08
2018-06-23T06:06:28.487Z,59.69
2018-06-23T06:08:58.914Z,59.20
2018-06-23T06:11:29.566Z,58.53
2018-06-23T06:13:59.818Z,59.28
2018-06-23T06:16:51.737Z,59.03
2018-06-23T06:19:21.720Z,57.82
2018-06-23T06:21:52.551Z,58.26
2018-06-23T06:24:22.590Z,58.15
2018-06-23T06:26:52.700Z,57.95
2018-06-23T06:29:22.779Z,58.15
2018-06-23T06:31:53.160Z,58.02
2018-06-23T06:34:23.226Z,57.81
2018-06-23T06:36:53.697Z,57.72
2018-06-23T06:39:23.779Z,57.62
2018-06-23T06:41:54.959Z,58.21
2018-06-23T06:44:25.111Z,57.97
2018-06-23T06:46:55.791Z,57.95
2018-06-23T06:49:26.117Z,57.92
2018-06-23T06:51:56.224Z,58.63
2018-06-23T06:54:27.016Z,58.39
2018-06-23T06:56:57.455Z,57.96
2018-06-23T06:59:27.621Z,56.85
2018-06-23T07:01:57.913Z,56.81
2018-06-23T07:04:28.425Z,56.87
2018-06-23T07:06:58.663Z,56.71
2018-06-23T07:09:29.456Z,56.78
2018-06-23T07:11:59.572Z,56.41
2018-06-23T07:14:29.605Z,56.58
2018-06-23T07:16:59.831Z,56.31
2018-06-23T07:19:30.324Z,57.08
2018-06-23T07:22:01.308Z,56.84
2018-06-23T07:24:31.049Z,55.61
2018-06-23T07:27:01.113Z,55.04
2018-06-23T07:29:31.407Z,54.72
2018-06-23T07:32:01.618Z,54.71
2018-06-23T07:34:32.561Z,54.21
2018-06-23T07:37:03.170Z,53.87
2018-06-23T07:39:33.387Z,53.36
2018-06-23T07:42:03.251Z,52.95
2018-06-23T07:44:33.653Z,52.98
2018-06-23T07:47:03.942Z,52.75
2018-06-23T07:49:34.726Z,52.94
2018-06-23T07:52:05.377Z,53.60
2018-06-23T07:54:35.726Z,53.35
2018-06-23T07:57:06.475Z,53.51
2018-06-23T07:59:37.401Z,53.22
2018-06-23T08:02:07.860Z,52.85
2018-06-23T08:04:37.998Z,52.38
2018-06-23T08:07:08.023Z,52.26
2018-06-23T08:09:38.276Z,52.54
2018-06-23T08:12:08.584Z,53.28
2018-06-23T08:14:39.046Z,52.35
2018-06-23T08:17:10.408Z,52.43
2018-06-23T08:19:40.758Z,52.87
2018-06-23T08:22:10.925Z,53.09
2018-06-23T08:24:41.225Z,52.89
2018-06-23T08:27:12.148Z,52.72
2018-06-23T08:29:42.567Z,53.71
2018-06-23T08:32:12.743Z,53.35
2018-06-23T08:34:43.176Z,53.41
2018-06-23T08:37:13.855Z,53.25
2018-06-23T08:39:44.123Z,54.30
2018-06-23T08:42:14.303Z,54.01
2018-06-23T08:44:44.542Z,53.80
2018-06-23T08:47:15.263Z,54.51
2018-06-23T08:49:45.497Z,54.16
2018-06-23T08:52:15.927Z,53.71
2018-06-23T08:54:46.283Z,52.95
2018-06-23T08:57:16.375Z,53.99
2018-06-23T08:59:46.560Z,53.79
2018-06-23T09:02:16.801Z,54.30
2018-06-23T09:04:46.974Z,53.77
2018-06-23T09:07:17.210Z,54.11
2018-06-23T09:09:47.494Z,54.01
2018-06-23T09:12:17.799Z,54.26
2018-06-23T09:14:54.604Z,54.44
2018-06-23T09:17:24.820Z,54.69
2018-06-23T09:19:55.066Z,55.04
2018-06-23T09:22:25.457Z,54.86
2018-06-23T09:24:56.138Z,54.77
2018-06-23T09:27:26.224Z,55.70
2018-06-23T09:29:56.556Z,54.86
2018-06-23T09:32:26.773Z,55.45
2018-06-23T09:34:56.854Z,54.58
2018-06-23T09:37:27.094Z,55.41
2018-06-23T09:39:57.271Z,55.23
2018-06-23T09:42:27.489Z,54.78
2018-06-23T09:44:57.876Z,54.32
2018-06-23T09:47:28.083Z,54.61
2018-06-23T09:50:01.222Z,53.99
2018-06-23T09:52:32.040Z,54.37
2018-06-23T09:55:02.777Z,54.39
2018-06-23T09:57:32.917Z,53.83
2018-06-23T10:00:03.406Z,54.38
2018-06-23T10:02:33.523Z,54.37
2018-06-23T10:05:04.395Z,53.88
2018-06-23T10:07:34.582Z,54.02
2018-06-23T10:10:06.543Z,54.15
2018-06-23T10:12:36.583Z,54.45
2018-06-23T10:15:06.798Z,53.93
2018-06-23T10:17:36.840Z,53.02
2018-06-23T10:20:07.530Z,52.67
2018-06-23T10:22:37.666Z,52.07
2018-06-23T10:25:08.761Z,51.53
2018-06-23T10:27:38.883Z,51.39
2018-06-23T10:30:09.091Z,50.81
2018-06-23T10:32:46.016Z,48.57
2018-06-23T10:35:16.976Z,48.28
2018-06-23T10:37:47.909Z,48.00
2018-06-23T10:40:18.056Z,47.72
2018-06-23T10:42:48.243Z,46.65
2018-06-23T10:45:18.527Z,47.09
2018-06-23T10:47:48.721Z,47.15
2018-06-23T10:50:18.987Z,46.46
2018-06-23T10:52:49.254Z,47.47
2018-06-23T10:55:19.430Z,46.99
2018-06-23T10:57:49.713Z,47.28
2018-06-23T11:00:21.463Z,47.66
2018-06-23T11:02:51.802Z,47.62
2018-06-23T11:05:22.108Z,48.05
2018-06-23T11:07:52.493Z,48.04
2018-06-23T11:10:22.591Z,48.13
2018-06-23T11:12:52.978Z,47.58
2018-06-23T11:15:23.163Z,47.49
2018-06-23T11:17:54.818Z,47.27
2018-06-23T11:20:25.174Z,47.14
2018-06-23T11:22:55.537Z,46.94
2018-06-23T11:25:25.742Z,45.82
2018-06-23T11:27:56.571Z,45.75
2018-06-23T11:30:26.898Z,45.67
2018-06-23T11:32:57.304Z,45.95
2018-06-23T11:35:27.559Z,46.25
2018-06-23T11:37:57.787Z,46.16
2018-06-23T11:40:28.209Z,46.17
2018-06-23T11:42:58.394Z,46.66
2018-06-23T11:45:28.840Z,46.55
2018-06-23T11:47:58.939Z,45.84
2018-06-23T11:50:29.465Z,45.67
2018-06-23T11:52:59.832Z,45.44
2018-06-23T11:55:30.574Z,45.21
2018-06-23T11:58:00.757Z,44.96
2018-06-23T12:00:31.580Z,45.49
2018-06-23T12:03:01.794Z,45.40
2018-06-23T12:05:32.521Z,45.45
2018-06-23T12:08:02.762Z,44.70
2018-06-23T12:10:34.085Z,43.96
2018-06-23T12:13:04.312Z,43.57
2018-06-23T12:15:35.486Z,43.32
2018-06-23T12:18:05.762Z,43.31
2018-06-23T12:20:36.500Z,42.57
2018-06-23T12:23:06.894Z,42.99
2018-06-23T12:25:37.323Z,42.82
2018-06-23T12:28:07.961Z,42.97
2018-06-23T12:30:38.196Z,43.22
2018-06-23T12:33:08.470Z,43.14
2018-06-23T12:35:39.044Z,43.52
2018-06-23T12:38:09.207Z,43.81
2018-06-23T12:40:40.067Z,43.90
2018-06-23T12:43:10.194Z,43.61
2018-06-23T12:45:40.558Z,43.60
2018-06-23T12:48:10.851Z,43.50
2018-06-23T12:50:41.493Z,43.50
2018-06-23T12:53:11.585Z,43.79
2018-06-23T12:55:42.133Z,43.85
2018-06-23T12:58:12.318Z,43.58
2018-06-23T13:00:42.517Z,43.91
2018-06-23T13:03:12.717Z,43.31
2018-06-23T13:05:42.939Z,42.77
2018-06-23T13:08:13.222Z,42.02
2018-06-23T13:10:44.008Z,41.79
2018-06-23T13:13:14.348Z,41.92
2018-06-23T13:15:44.448Z,41.55
2018-06-23T13:18:14.708Z,41.14
2018-06-23T13:20:45.187Z,41.28
2018-06-23T13:23:15.519Z,41.08
2018-06-23T13:25:45.740Z,40.83
2018-06-23T13:28:16.169Z,40.63
2018-06-23T13:30:46.282Z,40.54
2018-06-23T13:33:16.378Z,40.40
2018-06-23T13:35:46.749Z,40.12
2018-06-23T13:38:16.555Z,39.25
2018-06-23T13:40:46.911Z,38.08
2018-06-23T13:43:16.927Z,37.45
2018-06-23T13:45:47.210Z,37.26
2018-06-23T13:48:17.507Z,37.43
2018-06-23T13:50:47.826Z,37.89
2018-06-23T13:53:18.316Z,37.73
2018-06-23T13:55:48.524Z,36.89
2018-06-23T13:58:18.761Z,36.83
2018-06-23T14:00:49.177Z,36.62
2018-06-23T14:03:19.503Z,36.54
2018-06-23T14:05:49.891Z,36.47
2018-06-23T14:08:20.235Z,37.00
2018-06-23T14:10:50.592Z,36.93
2018-06-23T14:13:21.229Z,36.76
2018-06-23T14:15:51.708Z,36.13
2018-06-23T14:18:22.766Z,36.00
2018-06-23T14:20:53.833Z,35.24
2018-06-23T14:23:24.213Z,34.28
2018-06-23T14:25:54.349Z,33.38
2018-06-23T14:28:24.872Z,33.37
2018-06-23T14:30:55.047Z,33.09
2018-06-23T14:33:25.822Z,34.05
2018-06-23T14:35:56.160Z,34.69
2018-06-23T14:38:26.544Z,34.05
2018-06-23T14:40:56.804Z,34.09
2018-06-23T14:43:27.267Z,33.49
2018-06-23T14:45:57.800Z,33.00
2018-06-23T14:48:28.159Z,33.53
2018-06-23T14:50:58.826Z,32.62
2018-06-23T14:53:29.175Z,32.10
2018-06-23T14:56:00.048Z,32.43
2018-06-23T14:58:29.948Z,31.55
2018-06-23T15:01:00.231Z,31.66
2018-06-23T15:03:30.534Z,31.35
2018-06-23T15:06:02.703Z,31.56
2018-06-23T15:08:43.740Z,31.95
2018-06-23T15:11:24.359Z,31.68
2018-06-23T15:13:54.412Z,32.23
2018-06-23T15:16:24.901Z,32.12
2018-06-23T15:18:55.315Z,32.79
2018-06-23T15:21:25.774Z,32.32
2018-06-23T15:23:56.125Z,32.67
2018-06-23T15:26:26.865Z,32.24
2018-06-23T15:28:57.098Z,32.06
2018-06-23T15:31:27.500Z,31.95
2018-06-23T15:33:57.692Z,32.33
2018-06-23T15:36:28.001Z,31.59
2018-06-23T15:38:58.171Z,31.60
2018-06-23T15:41:28.627Z,31.66
2018-06-23T15:43:58.723Z,31.33
2018-06-23T15:46:29.008Z,30.24
2018-06-23T15:48:59.107Z,31.07
2018-06-23T15:51:29.549Z,30.61
2018-06-23T15:53:59.969Z,30.15
2018-06-23T15:56:30.508Z,30.57
2018-06-23T15:59:00.899Z,29.85
2018-06-23T16:01:31.255Z,29.90
2018-06-23T16:04:01.154Z,28.36
2018-06-23T16:06:31.652Z,27.87
2018-06-23T16:09:01.807Z,27.13
2018-06-23T16:11:32.048Z,28.03
2018-06-23T16:14:02.998Z,27.50
2018-06-23T16:16:33.431Z,27.79
2018-06-23T16:19:03.539Z,28.05
2018-06-23T16:21:33.690Z,28.57
2018-06-23T16:24:04.004Z,29.04
2018-06-23T16:26:35.400Z,28.17
2018-06-23T16:29:05.688Z,28.90
2018-06-23T16:31:35.970Z,29.09
2018-06-23T16:34:06.427Z,29.46
2018-06-23T16:36:36.922Z,29.49
2018-06-23T16:39:09.445Z,29.62
2018-06-23T16:41:39.992Z,29.93
2018-06-23T16:44:10.317Z,29.82
2018-06-23T16:46:40.481Z,30.51
2018-06-23T16:49:10.838Z,30.75
2018-06-23T16:51:41.128Z,30.48
2018-06-23T16:54:11.563Z,30.67
2018-06-23T16:56:41.803Z,30.49
2018-06-23T16:59:12.147Z,30.84
2018-06-23T17:01:42.206Z,30.63
2018-06-23T17:04:12.579Z,31.03
2018-06-23T17:06:43.160Z,31.51
2018-06-23T17:09:13.323Z,32.28
2018-06-23T17:11:43.706Z,32.43
2018-06-23T17:14:13.889Z,32.20
2018-06-23T17:16:44.305Z,32.99
2018-06-23T17:19:14.899Z,32.42
2018-06-23T17:21:45.417Z,33.10
2018-06-23T17:24:15.415Z,33.51
2018-06-23T17:26:45.702Z,33.46
2018-06-23T17:29:16.384Z,33.83
2018-06-23T17:31:46.967Z,33.92
2018-06-23T17:34:17.333Z,34.43
2018-06-23T17:36:47.545Z,34.20
2018-06-23T17:39:18.068Z,33.87
2018-06-23T17:41:49.765Z,33.75
2018-06-23T17:44:20.356Z,33.98
2018-06-23T17:46:50.812Z,34.38
2018-06-23T17:49:21.106Z,34.41
2018-06-23T17:51:51.606Z,34.52
2018-06-23T17:54:21.937Z,34.81
2018-06-23T17:56:51.892Z,34.68
2018-06-23T17:59:22.387Z,35.11
2018-06-23T18:01:52.851Z,35.32
2018-06-23T18:04:23.152Z,35.23
2018-06-23T18:06:53.379Z,35.45
2018-06-23T18:09:23.730Z,35.72
2018-06-23T18:11:54.115Z,35.81
2018-06-23T18:14:24.221Z,35.93
2018-06-23T18:16:54.430Z,36.14
2018-06-23T18:19:24.600Z,36.53
2018-06-23T18:21:54.726Z,36.82
2018-06-23T18:24:24.986Z,37.04
2018-06-23T18:26:55.127Z,37.00
2018-06-23T18:29:25.381Z,37.46
2018-06-23T18:31:55.861Z,37.49
2018-06-23T18:34:26.324Z,38.03
2018-06-23T18:36:56.340Z,38.38
2018-06-23T18:39:26.603Z,38.63
2018-06-23T18:41:57.100Z,38.77
2018-06-23T18:44:27.714Z,38.99
2018-06-23T18:46:58.026Z,38.93
2018-06-23T18:49:28.330Z,39.14
2018-06-23T18:51:59.894Z,39.41
2018-06-23T18:54:35.097Z,39.57
2018-06-23T18:57:05.881Z,39.71
2018-06-23T18:59:36.327Z,39.75
2018-06-23T19:02:06.580Z,39.76
2018-06-23T19:04:36.755Z,40.08
2018-06-23T19:07:06.903Z,40.22
2018-06-23T19:09:37.476Z,40.46
2018-06-23T19:12:08.698Z,40.51
2018-06-23T19:14:38.926Z,40.42
2018-06-23T19:17:09.519Z,40.48
2018-06-23T19:19:39.910Z,40.38
2018-06-23T19:22:10.075Z,40.52
2018-06-23T19:24:40.277Z,40.66
2018-06-23T19:27:10.567Z,40.77
2018-06-23T19:29:40.740Z,40.90
2018-06-23T19:32:10.933Z,40.99
2018-06-23T19:34:41.053Z,41.07
2018-06-23T19:37:11.260Z,41.32
2018-06-23T19:39:41.352Z,41.68
2018-06-23T19:42:12.745Z,41.81
2018-06-23T19:44:42.921Z,41.98
2018-06-23T19:47:13.148Z,42.53
2018-06-23T19:49:43.396Z,42.37
2018-06-23T19:52:13.534Z,42.54
2018-06-23T19:54:44.637Z,42.74
2018-06-23T19:57:15.270Z,43.04
2018-06-23T19:59:45.556Z,42.69
2018-06-23T20:02:15.957Z,42.92
2018-06-23T20:04:46.148Z,42.92
2018-06-23T20:07:16.358Z,43.25
2018-06-23T20:09:46.626Z,42.72
2018-06-23T20:12:17.154Z,42.96
2018-06-23T20:14:48.888Z,43.30
2018-06-23T20:17:19.196Z,42.74
2018-06-23T20:19:49.404Z,42.99
2018-06-23T20:22:19.697Z,43.02
2018-06-23T20:24:50.435Z,43.17
2018-06-23T20:27:20.530Z,43.01
2018-06-23T20:29:51.066Z,43.71
2018-06-23T20:32:21.104Z,43.12
2018-06-23T20:34:51.215Z,43.32
2018-06-23T20:37:22.119Z,43.31
2018-06-23T20:39:52.252Z,42.71
2018-06-23T20:42:22.327Z,43.85
2018-06-23T20:44:52.863Z,43.72
2018-06-23T20:47:23.057Z,43.68
2018-06-23T20:49:54.010Z,44.31
2018-06-23T20:52:24.035Z,43.47
2018-06-23T20:54:53.900Z,43.87
2018-06-23T20:57:23.915Z,43.81
2018-06-23T20:59:54.030Z,43.98
2018-06-23T21:02:24.332Z,44.44
2018-06-23T21:04:55.398Z,44.18
2018-06-23T21:07:25.609Z,44.34
2018-06-23T21:09:55.997Z,44.24
2018-06-23T21:12:25.985Z,44.56
2018-06-23T21:14:56.318Z,44.70
2018-06-23T21:17:26.433Z,44.57
2018-06-23T21:19:56.458Z,44.95
2018-06-23T21:22:26.578Z,44.54
2018-06-23T21:24:56.681Z,44.44
2018-06-23T21:27:27.014Z,44.81
2018-06-23T21:29:57.292Z,44.65
2018-06-23T21:32:27.589Z,44.77
2018-06-23T21:34:57.983Z,44.68
2018-06-23T21:37:28.905Z,44.80
2018-06-23T21:39:58.915Z,44.50
2018-06-23T21:42:29.566Z,44.78
2018-06-23T21:45:00.045Z,44.59
2018-06-23T21:47:30.399Z,44.81
2018-06-23T21:50:01.767Z,44.64
2018-06-23T21:52:32.446Z,44.85
2018-06-23T21:55:02.872Z,44.92
2018-06-23T21:57:33.275Z,45.10
2018-06-23T22:00:03.846Z,45.04
2018-06-23T22:02:33.714Z,45.10
2018-06-23T22:05:04.428Z,45.32
2018-06-23T22:07:35.025Z,45.34
2018-06-23T22:10:05.113Z,45.72
2018-06-23T22:12:35.335Z,45.54
2018-06-23T22:15:05.589Z,45.38
2018-06-23T22:17:36.035Z,46.17
2018-06-23T22:20:06.633Z,45.73
2018-06-23T22:22:37.187Z,45.30
2018-06-23T22:25:07.387Z,45.98
2018-06-23T22:27:37.780Z,46.06
2018-06-23T22:30:07.846Z,46.10
2018-06-23T22:32:38.169Z,46.01
2018-06-23T22:35:09.082Z,46.41
2018-06-23T22:37:39.740Z,46.71
2018-06-23T22:40:10.356Z,47.21
2018-06-23T22:42:40.352Z,46.92
2018-06-23T22:45:10.731Z,47.01
2018-06-23T22:47:40.814Z,46.57
2018-06-23T22:50:11.373Z,47.02
2018-06-23T22:52:41.553Z,47.52
2018-06-23T22:55:11.880Z,47.74
2018-06-23T22:57:42.882Z,48.08
2018-06-23T23:00:14.271Z,48.08
2018-06-23T23:02:45.798Z,48.33
2018-06-23T23:05:15.908Z,48.15
2018-06-23T23:07:46.162Z,48.40
2018-06-23T23:10:16.359Z,49.35
2018-06-23T23:12:46.802Z,48.90
2018-06-23T23:15:17.112Z,49.61
2018-06-23T23:17:48.292Z,49.43
2018-06-23T23:20:18.479Z,50.83
2018-06-23T23:22:48.824Z,50.53
2018-06-23T23:25:20.339Z,51.85
2018-06-23T23:27:50.284Z,51.87
2018-06-23T23:30:20.543Z,53.53
2018-06-23T23:32:50.891Z,53.49
2018-06-23T23:35:20.982Z,53.95
2018-06-23T23:37:51.238Z,54.33
2018-06-23T23:40:22.083Z,54.39
2018-06-23T23:42:52.108Z,55.26
2018-06-23T23:45:28.700Z,56.02
2018-06-23T23:47:58.817Z,56.08
2018-06-23T23:50:29.022Z,56.37
2018-06-23T23:52:59.452Z,56.10
2018-06-23T23:55:29.576Z,56.30
2018-06-23T23:57:59.656Z,57.22
